Vilonia, Arkansas
Current Conditions -  °F | °C
As of 1:58 PM on Saturday 20 Dec 2014 (Local Time) from KLRF Reporting Station
Overcast Overcast  
Wind Chill: 47°   Ceiling: 5500
Heat Index: 47°   Visibility: 10mi
Dew Point: 36°   Wind: 2mph
Humidity: 66%   Direction: 350°N
Pressure: 30.22"   Gusts: NA
Location:  35.08°N, 92.21°W
Report Text: KLRF 201958Z AUTO 35002KT 10SM FEW036 OVC055 08/02 A3022 RMK AO2 SLP238 T00830023
Loading
Personal Weather Stations






























Interactive Weather Map New forecast layout! Learn more

10-Day Weather Forecast

Advertisements
Track Severe Weather on mobile